sensor_id;sensor_type;location;lat;lon;timestamp;P1;durP1;ratioP1;P2;durP2;ratioP2
17488;SDS011;8861;52.644;4.734;2023-04-25T00:01:00;14.50;;;5.00;;
17488;SDS011;8861;52.644;4.734;2023-04-25T00:03:28;11.23;;;4.53;;
17488;SDS011;8861;52.644;4.734;2023-04-25T00:05:55;11.60;;;5.30;;
17488;SDS011;8861;52.644;4.734;2023-04-25T00:08:22;13.13;;;4.87;;
17488;SDS011;8861;52.644;4.734;2023-04-25T00:10:50;17.17;;;5.47;;
17488;SDS011;8861;52.644;4.734;2023-04-25T00:13:19;15.53;;;4.87;;
17488;SDS011;8861;52.644;4.734;2023-04-25T00:15:46;14.80;;;5.13;;
17488;SDS011;8861;52.644;4.734;2023-04-25T00:18:13;10.87;;;4.67;;
17488;SDS011;8861;52.644;4.734;2023-04-25T00:20:40;14.70;;;4.70;;
17488;SDS011;8861;52.644;4.734;2023-04-25T00:23:11;20.30;;;5.40;;
17488;SDS011;8861;52.644;4.734;2023-04-25T00:25:42;11.47;;;4.70;;
17488;SDS011;8861;52.644;4.734;2023-04-25T00:28:09;12.30;;;4.60;;
17488;SDS011;8861;52.644;4.734;2023-04-25T00:30:38;14.00;;;4.70;;
17488;SDS011;8861;52.644;4.734;2023-04-25T00:33:05;13.50;;;4.77;;
17488;SDS011;8861;52.644;4.734;2023-04-25T00:35:32;13.37;;;5.30;;
17488;SDS011;8861;52.644;4.734;2023-04-25T00:38:00;13.27;;;5.07;;
17488;SDS011;8861;52.644;4.734;2023-04-25T00:40:27;12.40;;;4.67;;
17488;SDS011;8861;52.644;4.734;2023-04-25T00:42:54;16.80;;;5.27;;
17488;SDS011;8861;52.644;4.734;2023-04-25T00:45:21;16.40;;;5.27;;
17488;SDS011;8861;52.644;4.734;2023-04-25T00:47:54;18.23;;;5.40;;
17488;SDS011;8861;52.644;4.734;2023-04-25T00:50:22;18.90;;;5.60;;
17488;SDS011;8861;52.644;4.734;2023-04-25T00:52:49;12.33;;;4.80;;
17488;SDS011;8861;52.644;4.734;2023-04-25T00:55:16;15.03;;;4.80;;
17488;SDS011;8861;52.644;4.734;2023-04-25T00:57:43;19.43;;;5.60;;
17488;SDS011;8861;52.644;4.734;2023-04-25T01:00:11;17.50;;;5.13;;
17488;SDS011;8861;52.644;4.734;2023-04-25T01:02:39;12.53;;;4.10;;
17488;SDS011;8861;52.644;4.734;2023-04-25T01:05:08;16.80;;;5.37;;
17488;SDS011;8861;52.644;4.734;2023-04-25T01:07:35;10.83;;;4.13;;
17488;SDS011;8861;52.644;4.734;2023-04-25T01:10:02;13.27;;;4.53;;
17488;SDS011;8861;52.644;4.734;2023-04-25T01:12:31;11.53;;;4.17;;
17488;SDS011;8861;52.644;4.734;2023-04-25T01:14:58;9.93;;;3.93;;
17488;SDS011;8861;52.644;4.734;2023-04-25T01:17:25;8.27;;;4.33;;
17488;SDS011;8861;52.644;4.734;2023-04-25T01:19:52;15.87;;;4.97;;
17488;SDS011;8861;52.644;4.734;2023-04-25T01:22:20;10.00;;;4.20;;
17488;SDS011;8861;52.644;4.734;2023-04-25T01:24:47;11.07;;;4.43;;
17488;SDS011;8861;52.644;4.734;2023-04-25T01:27:15;10.97;;;4.10;;
17488;SDS011;8861;52.644;4.734;2023-04-25T01:29:42;15.93;;;4.70;;
17488;SDS011;8861;52.644;4.734;2023-04-25T01:32:10;12.20;;;4.50;;
17488;SDS011;8861;52.644;4.734;2023-04-25T01:34:37;13.67;;;4.30;;
17488;SDS011;8861;52.644;4.734;2023-04-25T01:37:04;7.67;;;3.80;;
17488;SDS011;8861;52.644;4.734;2023-04-25T01:39:32;11.87;;;4.50;;
17488;SDS011;8861;52.644;4.734;2023-04-25T01:41:59;7.93;;;4.10;;
17488;SDS011;8861;52.644;4.734;2023-04-25T01:44:27;17.17;;;5.13;;
17488;SDS011;8861;52.644;4.734;2023-04-25T01:46:54;14.37;;;4.97;;
17488;SDS011;8861;52.644;4.734;2023-04-25T01:49:21;14.67;;;4.97;;
17488;SDS011;8861;52.644;4.734;2023-04-25T01:51:48;11.20;;;4.00;;
17488;SDS011;8861;52.644;4.734;2023-04-25T01:54:15;11.23;;;4.00;;
17488;SDS011;8861;52.644;4.734;2023-04-25T01:56:49;18.83;;;4.90;;
17488;SDS011;8861;52.644;4.734;2023-04-25T01:59:17;12.17;;;4.60;;
17488;SDS011;8861;52.644;4.734;2023-04-25T02:01:46;12.63;;;3.90;;
17488;SDS011;8861;52.644;4.734;2023-04-25T02:04:13;12.57;;;4.50;;
17488;SDS011;8861;52.644;4.734;2023-04-25T02:06:40;11.00;;;3.80;;
17488;SDS011;8861;52.644;4.734;2023-04-25T02:09:07;9.93;;;3.63;;
17488;SDS011;8861;52.644;4.734;2023-04-25T02:11:34;6.17;;;3.00;;
17488;SDS011;8861;52.644;4.734;2023-04-25T02:14:02;10.70;;;3.73;;
17488;SDS011;8861;52.644;4.734;2023-04-25T02:16:29;9.93;;;3.90;;
17488;SDS011;8861;52.644;4.734;2023-04-25T02:18:56;10.13;;;3.73;;
17488;SDS011;8861;52.644;4.734;2023-04-25T02:21:24;10.53;;;3.90;;
17488;SDS011;8861;52.644;4.734;2023-04-25T02:23:51;9.43;;;3.93;;
17488;SDS011;8861;52.644;4.734;2023-04-25T02:26:19;9.93;;;3.60;;
17488;SDS011;8861;52.644;4.734;2023-04-25T02:28:46;9.67;;;3.80;;
17488;SDS011;8861;52.644;4.734;2023-04-25T02:31:14;15.13;;;4.47;;
17488;SDS011;8861;52.644;4.734;2023-04-25T02:33:41;12.67;;;4.10;;
17488;SDS011;8861;52.644;4.734;2023-04-25T02:36:09;12.23;;;4.00;;
17488;SDS011;8861;52.644;4.734;2023-04-25T02:38:36;11.03;;;3.53;;
17488;SDS011;8861;52.644;4.734;2023-04-25T02:41:03;13.07;;;3.80;;
17488;SDS011;8861;52.644;4.734;2023-04-25T02:43:30;7.23;;;3.60;;
17488;SDS011;8861;52.644;4.734;2023-04-25T02:45:57;15.47;;;3.40;;
17488;SDS011;8861;52.644;4.734;2023-04-25T02:48:25;11.83;;;3.50;;
17488;SDS011;8861;52.644;4.734;2023-04-25T02:50:52;6.67;;;3.53;;
17488;SDS011;8861;52.644;4.734;2023-04-25T02:53:19;9.27;;;3.10;;
17488;SDS011;8861;52.644;4.734;2023-04-25T02:55:46;12.67;;;3.33;;
17488;SDS011;8861;52.644;4.734;2023-04-25T02:58:13;8.00;;;3.07;;
17488;SDS011;8861;52.644;4.734;2023-04-25T03:00:40;7.67;;;2.90;;
17488;SDS011;8861;52.644;4.734;2023-04-25T03:03:07;6.07;;;3.10;;
17488;SDS011;8861;52.644;4.734;2023-04-25T03:05:35;5.73;;;3.50;;
17488;SDS011;8861;52.644;4.734;2023-04-25T03:08:03;6.67;;;3.43;;
17488;SDS011;8861;52.644;4.734;2023-04-25T03:10:30;5.20;;;2.67;;
17488;SDS011;8861;52.644;4.734;2023-04-25T03:12:57;4.50;;;2.90;;
17488;SDS011;8861;52.644;4.734;2023-04-25T03:15:24;8.60;;;3.40;;
17488;SDS011;8861;52.644;4.734;2023-04-25T03:17:51;8.67;;;3.07;;
17488;SDS011;8861;52.644;4.734;2023-04-25T03:20:18;12.03;;;3.80;;
17488;SDS011;8861;52.644;4.734;2023-04-25T03:22:46;5.73;;;3.37;;
17488;SDS011;8861;52.644;4.734;2023-04-25T03:25:13;8.73;;;3.40;;
17488;SDS011;8861;52.644;4.734;2023-04-25T03:27:40;12.87;;;4.03;;
17488;SDS011;8861;52.644;4.734;2023-04-25T03:30:07;6.67;;;3.30;;
17488;SDS011;8861;52.644;4.734;2023-04-25T03:32:35;6.60;;;2.70;;
17488;SDS011;8861;52.644;4.734;2023-04-25T03:35:02;7.43;;;3.10;;
17488;SDS011;8861;52.644;4.734;2023-04-25T03:37:29;7.37;;;3.27;;
17488;SDS011;8861;52.644;4.734;2023-04-25T03:39:57;7.00;;;3.27;;
17488;SDS011;8861;52.644;4.734;2023-04-25T03:42:24;9.63;;;3.70;;
17488;SDS011;8861;52.644;4.734;2023-04-25T03:44:51;6.90;;;3.30;;
17488;SDS011;8861;52.644;4.734;2023-04-25T03:47:18;9.60;;;3.17;;
17488;SDS011;8861;52.644;4.734;2023-04-25T03:49:45;9.43;;;3.40;;
17488;SDS011;8861;52.644;4.734;2023-04-25T03:52:12;15.40;;;3.80;;
17488;SDS011;8861;52.644;4.734;2023-04-25T03:54:39;8.63;;;3.53;;
17488;SDS011;8861;52.644;4.734;2023-04-25T03:57:07;8.97;;;3.67;;
17488;SDS011;8861;52.644;4.734;2023-04-25T03:59:35;7.03;;;3.33;;
17488;SDS011;8861;52.644;4.734;2023-04-25T04:02:02;8.40;;;3.40;;
17488;SDS011;8861;52.644;4.734;2023-04-25T04:04:29;7.80;;;3.50;;
17488;SDS011;8861;52.644;4.734;2023-04-25T04:06:56;9.33;;;3.57;;
17488;SDS011;8861;52.644;4.734;2023-04-25T04:09:23;10.00;;;3.30;;
17488;SDS011;8861;52.644;4.734;2023-04-25T04:11:50;5.90;;;3.03;;
17488;SDS011;8861;52.644;4.734;2023-04-25T04:14:18;9.77;;;2.87;;
17488;SDS011;8861;52.644;4.734;2023-04-25T04:16:45;10.67;;;3.40;;
17488;SDS011;8861;52.644;4.734;2023-04-25T04:19:12;8.80;;;3.27;;
17488;SDS011;8861;52.644;4.734;2023-04-25T04:21:40;9.50;;;3.03;;
17488;SDS011;8861;52.644;4.734;2023-04-25T04:24:07;16.23;;;3.73;;
17488;SDS011;8861;52.644;4.734;2023-04-25T04:26:35;18.97;;;4.03;;
17488;SDS011;8861;52.644;4.734;2023-04-25T04:29:03;16.43;;;3.60;;
17488;SDS011;8861;52.644;4.734;2023-04-25T04:31:32;12.23;;;3.20;;
17488;SDS011;8861;52.644;4.734;2023-04-25T04:33:58;11.40;;;3.40;;
17488;SDS011;8861;52.644;4.734;2023-04-25T04:36:26;14.67;;;2.97;;
17488;SDS011;8861;52.644;4.734;2023-04-25T04:38:53;16.97;;;3.73;;
17488;SDS011;8861;52.644;4.734;2023-04-25T04:41:21;15.67;;;3.23;;
17488;SDS011;8861;52.644;4.734;2023-04-25T04:43:48;10.20;;;3.37;;
17488;SDS011;8861;52.644;4.734;2023-04-25T04:46:15;13.20;;;3.13;;
17488;SDS011;8861;52.644;4.734;2023-04-25T04:48:44;11.43;;;3.03;;
17488;SDS011;8861;52.644;4.734;2023-04-25T04:51:11;13.53;;;3.23;;
17488;SDS011;8861;52.644;4.734;2023-04-25T04:53:38;6.90;;;2.83;;
17488;SDS011;8861;52.644;4.734;2023-04-25T04:56:05;10.83;;;2.93;;
17488;SDS011;8861;52.644;4.734;2023-04-25T04:58:32;11.37;;;3.33;;
17488;SDS011;8861;52.644;4.734;2023-04-25T05:01:01;10.87;;;2.80;;
17488;SDS011;8861;52.644;4.734;2023-04-25T05:03:28;8.27;;;2.93;;
17488;SDS011;8861;52.644;4.734;2023-04-25T05:05:57;11.33;;;3.03;;
17488;SDS011;8861;52.644;4.734;2023-04-25T05:08:24;7.10;;;2.53;;
17488;SDS011;8861;52.644;4.734;2023-04-25T05:10:50;10.20;;;3.13;;
17488;SDS011;8861;52.644;4.734;2023-04-25T05:13:17;13.03;;;2.93;;
17488;SDS011;8861;52.644;4.734;2023-04-25T05:15:45;11.50;;;3.03;;
17488;SDS011;8861;52.644;4.734;2023-04-25T05:18:11;9.33;;;2.60;;
17488;SDS011;8861;52.644;4.734;2023-04-25T05:20:38;10.50;;;2.83;;
17488;SDS011;8861;52.644;4.734;2023-04-25T05:23:07;13.43;;;3.40;;
17488;SDS011;8861;52.644;4.734;2023-04-25T05:25:33;12.40;;;2.80;;
17488;SDS011;8861;52.644;4.734;2023-04-25T05:28:00;11.77;;;3.00;;
17488;SDS011;8861;52.644;4.734;2023-04-25T05:30:27;8.73;;;2.57;;
17488;SDS011;8861;52.644;4.734;2023-04-25T05:32:54;11.87;;;3.10;;
17488;SDS011;8861;52.644;4.734;2023-04-25T05:35:21;8.17;;;2.40;;
17488;SDS011;8861;52.644;4.734;2023-04-25T05:37:48;10.23;;;2.70;;
17488;SDS011;8861;52.644;4.734;2023-04-25T05:40:17;9.77;;;2.60;;
17488;SDS011;8861;52.644;4.734;2023-04-25T05:42:44;9.10;;;3.10;;
17488;SDS011;8861;52.644;4.734;2023-04-25T05:45:11;8.53;;;2.40;;
17488;SDS011;8861;52.644;4.734;2023-04-25T05:47:38;10.37;;;2.67;;
17488;SDS011;8861;52.644;4.734;2023-04-25T05:50:05;7.63;;;2.50;;
17488;SDS011;8861;52.644;4.734;2023-04-25T05:52:33;11.83;;;2.63;;
17488;SDS011;8861;52.644;4.734;2023-04-25T05:55:00;8.20;;;2.57;;
17488;SDS011;8861;52.644;4.734;2023-04-25T05:57:28;9.47;;;2.60;;
17488;SDS011;8861;52.644;4.734;2023-04-25T05:59:55;7.93;;;2.20;;
17488;SDS011;8861;52.644;4.734;2023-04-25T06:02:22;8.93;;;2.73;;
17488;SDS011;8861;52.644;4.734;2023-04-25T06:04:50;17.07;;;2.63;;
17488;SDS011;8861;52.644;4.734;2023-04-25T06:07:17;14.43;;;2.57;;
17488;SDS011;8861;52.644;4.734;2023-04-25T06:09:44;11.17;;;2.63;;
17488;SDS011;8861;52.644;4.734;2023-04-25T06:12:11;8.97;;;2.37;;
17488;SDS011;8861;52.644;4.734;2023-04-25T06:14:40;12.33;;;2.67;;
17488;SDS011;8861;52.644;4.734;2023-04-25T06:17:07;13.60;;;2.73;;
17488;SDS011;8861;52.644;4.734;2023-04-25T06:19:34;10.10;;;2.70;;
17488;SDS011;8861;52.644;4.734;2023-04-25T06:22:02;7.60;;;2.20;;
17488;SDS011;8861;52.644;4.734;2023-04-25T06:24:29;9.70;;;2.73;;
17488;SDS011;8861;52.644;4.734;2023-04-25T06:26:56;10.90;;;3.10;;
17488;SDS011;8861;52.644;4.734;2023-04-25T06:29:23;10.37;;;2.67;;
17488;SDS011;8861;52.644;4.734;2023-04-25T06:31:51;13.93;;;2.40;;
17488;SDS011;8861;52.644;4.734;2023-04-25T06:34:18;11.83;;;2.47;;
17488;SDS011;8861;52.644;4.734;2023-04-25T06:36:45;13.03;;;2.47;;
17488;SDS011;8861;52.644;4.734;2023-04-25T06:39:12;8.93;;;2.17;;
17488;SDS011;8861;52.644;4.734;2023-04-25T06:41:39;10.33;;;2.47;;
17488;SDS011;8861;52.644;4.734;2023-04-25T06:44:06;8.57;;;2.80;;
17488;SDS011;8861;52.644;4.734;2023-04-25T06:46:33;10.73;;;2.20;;
17488;SDS011;8861;52.644;4.734;2023-04-25T06:49:02;7.33;;;2.00;;
17488;SDS011;8861;52.644;4.734;2023-04-25T06:51:29;9.23;;;2.30;;
17488;SDS011;8861;52.644;4.734;2023-04-25T06:53:56;11.97;;;2.10;;
17488;SDS011;8861;52.644;4.734;2023-04-25T06:56:23;6.30;;;1.90;;
17488;SDS011;8861;52.644;4.734;2023-04-25T06:58:50;9.13;;;1.90;;
17488;SDS011;8861;52.644;4.734;2023-04-25T07:01:17;5.37;;;2.03;;
17488;SDS011;8861;52.644;4.734;2023-04-25T07:03:45;5.80;;;2.00;;
17488;SDS011;8861;52.644;4.734;2023-04-25T07:06:13;5.47;;;1.97;;
17488;SDS011;8861;52.644;4.734;2023-04-25T07:08:40;7.00;;;2.00;;
17488;SDS011;8861;52.644;4.734;2023-04-25T07:11:07;5.80;;;1.93;;
17488;SDS011;8861;52.644;4.734;2023-04-25T07:13:34;6.83;;;1.87;;
17488;SDS011;8861;52.644;4.734;2023-04-25T07:16:01;4.53;;;1.53;;
17488;SDS011;8861;52.644;4.734;2023-04-25T07:18:28;5.93;;;1.90;;
17488;SDS011;8861;52.644;4.734;2023-04-25T07:20:55;8.13;;;2.00;;
17488;SDS011;8861;52.644;4.734;2023-04-25T07:23:24;8.27;;;2.00;;
17488;SDS011;8861;52.644;4.734;2023-04-25T07:25:51;5.30;;;1.90;;
17488;SDS011;8861;52.644;4.734;2023-04-25T07:28:17;10.10;;;2.20;;
17488;SDS011;8861;52.644;4.734;2023-04-25T07:30:45;7.47;;;1.90;;
17488;SDS011;8861;52.644;4.734;2023-04-25T07:33:12;9.57;;;2.50;;
17488;SDS011;8861;52.644;4.734;2023-04-25T07:35:39;6.53;;;1.83;;
17488;SDS011;8861;52.644;4.734;2023-04-25T07:38:06;5.60;;;2.00;;
17488;SDS011;8861;52.644;4.734;2023-04-25T07:40:34;8.17;;;2.10;;
17488;SDS011;8861;52.644;4.734;2023-04-25T07:43:01;7.67;;;1.80;;
17488;SDS011;8861;52.644;4.734;2023-04-25T07:45:28;6.77;;;1.90;;
17488;SDS011;8861;52.644;4.734;2023-04-25T07:47:55;9.47;;;2.30;;
17488;SDS011;8861;52.644;4.734;2023-04-25T07:50:22;7.47;;;2.17;;
17488;SDS011;8861;52.644;4.734;2023-04-25T07:52:49;5.73;;;1.63;;
17488;SDS011;8861;52.644;4.734;2023-04-25T07:55:16;5.40;;;2.00;;
17488;SDS011;8861;52.644;4.734;2023-04-25T07:57:44;7.77;;;2.00;;
17488;SDS011;8861;52.644;4.734;2023-04-25T08:00:11;5.17;;;1.80;;
17488;SDS011;8861;52.644;4.734;2023-04-25T08:02:40;7.20;;;2.07;;
17488;SDS011;8861;52.644;4.734;2023-04-25T08:05:07;6.77;;;2.13;;
17488;SDS011;8861;52.644;4.734;2023-04-25T08:07:36;8.23;;;2.27;;
17488;SDS011;8861;52.644;4.734;2023-04-25T08:10:04;4.50;;;1.90;;
17488;SDS011;8861;52.644;4.734;2023-04-25T08:12:31;7.60;;;1.90;;
17488;SDS011;8861;52.644;4.734;2023-04-25T08:15:00;6.73;;;2.13;;
17488;SDS011;8861;52.644;4.734;2023-04-25T08:17:27;6.03;;;1.70;;
17488;SDS011;8861;52.644;4.734;2023-04-25T08:19:54;9.03;;;1.90;;
17488;SDS011;8861;52.644;4.734;2023-04-25T08:22:22;6.60;;;2.03;;
17488;SDS011;8861;52.644;4.734;2023-04-25T08:24:48;6.60;;;1.80;;
17488;SDS011;8861;52.644;4.734;2023-04-25T08:27:15;6.90;;;1.90;;
17488;SDS011;8861;52.644;4.734;2023-04-25T08:29:43;9.13;;;2.37;;
17488;SDS011;8861;52.644;4.734;2023-04-25T08:32:11;6.10;;;2.20;;
17488;SDS011;8861;52.644;4.734;2023-04-25T08:34:39;8.20;;;2.00;;
17488;SDS011;8861;52.644;4.734;2023-04-25T08:37:07;6.83;;;2.33;;
17488;SDS011;8861;52.644;4.734;2023-04-25T08:39:35;4.43;;;1.90;;
17488;SDS011;8861;52.644;4.734;2023-04-25T08:42:02;6.17;;;2.10;;
17488;SDS011;8861;52.644;4.734;2023-04-25T08:44:32;9.17;;;2.13;;
17488;SDS011;8861;52.644;4.734;2023-04-25T08:47:01;10.13;;;2.23;;
17488;SDS011;8861;52.644;4.734;2023-04-25T08:49:30;8.10;;;2.27;;
17488;SDS011;8861;52.644;4.734;2023-04-25T08:51:59;7.50;;;1.93;;
17488;SDS011;8861;52.644;4.734;2023-04-25T08:54:27;6.63;;;1.90;;
17488;SDS011;8861;52.644;4.734;2023-04-25T08:56:56;7.10;;;2.30;;
17488;SDS011;8861;52.644;4.734;2023-04-25T08:59:24;9.47;;;2.10;;
17488;SDS011;8861;52.644;4.734;2023-04-25T09:01:51;6.43;;;2.07;;
17488;SDS011;8861;52.644;4.734;2023-04-25T09:04:18;9.97;;;2.47;;
17488;SDS011;8861;52.644;4.734;2023-04-25T09:06:47;6.03;;;1.90;;
17488;SDS011;8861;52.644;4.734;2023-04-25T09:09:14;8.90;;;2.47;;
17488;SDS011;8861;52.644;4.734;2023-04-25T09:11:41;6.77;;;2.07;;
17488;SDS011;8861;52.644;4.734;2023-04-25T09:14:12;5.60;;;2.07;;
17488;SDS011;8861;52.644;4.734;2023-04-25T09:16:59;10.27;;;2.63;;
17488;SDS011;8861;52.644;4.734;2023-04-25T09:19:29;10.30;;;2.60;;
17488;SDS011;8861;52.644;4.734;2023-04-25T09:21:59;5.70;;;2.00;;
17488;SDS011;8861;52.644;4.734;2023-04-25T09:24:31;7.33;;;2.23;;
17488;SDS011;8861;52.644;4.734;2023-04-25T09:26:59;7.30;;;2.17;;
17488;SDS011;8861;52.644;4.734;2023-04-25T09:29:29;6.13;;;2.20;;
17488;SDS011;8861;52.644;4.734;2023-04-25T09:34:40;5.13;;;1.80;;
17488;SDS011;8861;52.644;4.734;2023-04-25T09:37:10;6.83;;;2.03;;
17488;SDS011;8861;52.644;4.734;2023-04-25T09:39:37;9.63;;;2.53;;
17488;SDS011;8861;52.644;4.734;2023-04-25T09:42:05;7.83;;;2.37;;
17488;SDS011;8861;52.644;4.734;2023-04-25T09:44:32;7.20;;;2.00;;
17488;SDS011;8861;52.644;4.734;2023-04-25T09:46:59;10.87;;;2.70;;
17488;SDS011;8861;52.644;4.734;2023-04-25T09:49:27;7.87;;;2.57;;
17488;SDS011;8861;52.644;4.734;2023-04-25T09:51:55;9.97;;;3.23;;
17488;SDS011;8861;52.644;4.734;2023-04-25T09:54:24;8.83;;;2.37;;
17488;SDS011;8861;52.644;4.734;2023-04-25T09:56:52;9.00;;;1.93;;
17488;SDS011;8861;52.644;4.734;2023-04-25T09:59:20;9.80;;;2.30;;
17488;SDS011;8861;52.644;4.734;2023-04-25T10:01:48;6.43;;;1.93;;
17488;SDS011;8861;52.644;4.734;2023-04-25T10:04:18;9.93;;;2.37;;
17488;SDS011;8861;52.644;4.734;2023-04-25T10:06:49;8.37;;;1.93;;
17488;SDS011;8861;52.644;4.734;2023-04-25T10:09:18;8.93;;;2.10;;
17488;SDS011;8861;52.644;4.734;2023-04-25T10:11:49;7.77;;;2.20;;
17488;SDS011;8861;52.644;4.734;2023-04-25T10:14:17;8.80;;;2.33;;
17488;SDS011;8861;52.644;4.734;2023-04-25T10:16:45;3.80;;;1.70;;
17488;SDS011;8861;52.644;4.734;2023-04-25T10:19:14;6.50;;;2.00;;
17488;SDS011;8861;52.644;4.734;2023-04-25T10:21:44;6.33;;;1.80;;
17488;SDS011;8861;52.644;4.734;2023-04-25T10:24:16;4.70;;;1.90;;
17488;SDS011;8861;52.644;4.734;2023-04-25T10:26:43;5.43;;;2.10;;
17488;SDS011;8861;52.644;4.734;2023-04-25T10:29:12;5.13;;;1.90;;
17488;SDS011;8861;52.644;4.734;2023-04-25T10:31:44;4.53;;;1.90;;
17488;SDS011;8861;52.644;4.734;2023-04-25T10:34:12;7.03;;;2.00;;
17488;SDS011;8861;52.644;4.734;2023-04-25T10:36:40;4.60;;;2.07;;
17488;SDS011;8861;52.644;4.734;2023-04-25T10:39:06;5.23;;;1.80;;
17488;SDS011;8861;52.644;4.734;2023-04-25T10:44:21;6.87;;;1.93;;
17488;SDS011;8861;52.644;4.734;2023-04-25T10:46:48;7.10;;;1.97;;
17488;SDS011;8861;52.644;4.734;2023-04-25T10:49:31;6.40;;;2.13;;
17488;SDS011;8861;52.644;4.734;2023-04-25T10:52:12;7.80;;;1.83;;
17488;SDS011;8861;52.644;4.734;2023-04-25T10:54:51;10.10;;;1.90;;
17488;SDS011;8861;52.644;4.734;2023-04-25T10:57:26;5.43;;;1.80;;
17488;SDS011;8861;52.644;4.734;2023-04-25T10:59:58;4.23;;;1.60;;
17488;SDS011;8861;52.644;4.734;2023-04-25T11:02:30;6.67;;;2.40;;
17488;SDS011;8861;52.644;4.734;2023-04-25T11:04:57;5.70;;;1.87;;
17488;SDS011;8861;52.644;4.734;2023-04-25T11:07:26;7.73;;;2.20;;
17488;SDS011;8861;52.644;4.734;2023-04-25T11:10:02;8.33;;;1.80;;
17488;SDS011;8861;52.644;4.734;2023-04-25T11:12:30;6.20;;;1.77;;
17488;SDS011;8861;52.644;4.734;2023-04-25T11:14:59;7.30;;;2.03;;
17488;SDS011;8861;52.644;4.734;2023-04-25T11:17:31;4.10;;;1.80;;
17488;SDS011;8861;52.644;4.734;2023-04-25T11:19:58;6.33;;;2.30;;
17488;SDS011;8861;52.644;4.734;2023-04-25T11:22:26;7.43;;;2.10;;
17488;SDS011;8861;52.644;4.734;2023-04-25T11:24:53;7.50;;;1.97;;
17488;SDS011;8861;52.644;4.734;2023-04-25T11:27:20;9.43;;;2.07;;
17488;SDS011;8861;52.644;4.734;2023-04-25T11:29:49;7.27;;;2.00;;
17488;SDS011;8861;52.644;4.734;2023-04-25T11:32:18;7.57;;;2.10;;
17488;SDS011;8861;52.644;4.734;2023-04-25T11:34:46;7.40;;;1.87;;
17488;SDS011;8861;52.644;4.734;2023-04-25T11:37:13;5.77;;;1.80;;
17488;SDS011;8861;52.644;4.734;2023-04-25T11:39:44;7.93;;;2.00;;
17488;SDS011;8861;52.644;4.734;2023-04-25T11:42:12;10.60;;;2.20;;
17488;SDS011;8861;52.644;4.734;2023-04-25T11:44:39;7.57;;;2.03;;
17488;SDS011;8861;52.644;4.734;2023-04-25T11:47:06;6.50;;;1.87;;
17488;SDS011;8861;52.644;4.734;2023-04-25T11:49:35;6.57;;;1.90;;
17488;SDS011;8861;52.644;4.734;2023-04-25T11:52:02;5.67;;;2.00;;
17488;SDS011;8861;52.644;4.734;2023-04-25T11:54:34;5.47;;;1.87;;
17488;SDS011;8861;52.644;4.734;2023-04-25T11:57:02;5.77;;;1.90;;
17488;SDS011;8861;52.644;4.734;2023-04-25T11:59:29;11.23;;;2.63;;
17488;SDS011;8861;52.644;4.734;2023-04-25T12:01:56;8.27;;;2.23;;
17488;SDS011;8861;52.644;4.734;2023-04-25T12:04:25;5.67;;;2.07;;
17488;SDS011;8861;52.644;4.734;2023-04-25T12:06:54;7.53;;;2.07;;
17488;SDS011;8861;52.644;4.734;2023-04-25T12:09:28;4.27;;;1.83;;
17488;SDS011;8861;52.644;4.734;2023-04-25T12:11:57;6.83;;;1.70;;
17488;SDS011;8861;52.644;4.734;2023-04-25T12:14:28;7.13;;;1.50;;
17488;SDS011;8861;52.644;4.734;2023-04-25T12:16:57;5.13;;;1.77;;
17488;SDS011;8861;52.644;4.734;2023-04-25T12:19:26;5.27;;;1.70;;
17488;SDS011;8861;52.644;4.734;2023-04-25T12:21:59;6.53;;;2.40;;
17488;SDS011;8861;52.644;4.734;2023-04-25T12:24:28;11.30;;;2.10;;
17488;SDS011;8861;52.644;4.734;2023-04-25T12:26:58;7.47;;;2.20;;
17488;SDS011;8861;52.644;4.734;2023-04-25T12:29:27;11.33;;;2.10;;
17488;SDS011;8861;52.644;4.734;2023-04-25T12:31:56;6.87;;;1.93;;
17488;SDS011;8861;52.644;4.734;2023-04-25T12:34:23;7.60;;;2.10;;
17488;SDS011;8861;52.644;4.734;2023-04-25T12:36:51;6.33;;;2.10;;
17488;SDS011;8861;52.644;4.734;2023-04-25T12:39:20;5.20;;;2.00;;
17488;SDS011;8861;52.644;4.734;2023-04-25T12:41:48;3.60;;;1.77;;
17488;SDS011;8861;52.644;4.734;2023-04-25T12:44:15;5.93;;;1.70;;
17488;SDS011;8861;52.644;4.734;2023-04-25T12:46:42;6.60;;;1.93;;
17488;SDS011;8861;52.644;4.734;2023-04-25T12:49:10;8.27;;;2.30;;
17488;SDS011;8861;52.644;4.734;2023-04-25T12:51:37;6.97;;;2.30;;
17488;SDS011;8861;52.644;4.734;2023-04-25T12:54:05;7.43;;;2.40;;
17488;SDS011;8861;52.644;4.734;2023-04-25T12:56:33;6.67;;;2.10;;
17488;SDS011;8861;52.644;4.734;2023-04-25T12:59:01;9.17;;;2.00;;
17488;SDS011;8861;52.644;4.734;2023-04-25T13:01:28;8.77;;;2.20;;
17488;SDS011;8861;52.644;4.734;2023-04-25T13:03:55;6.43;;;2.20;;
17488;SDS011;8861;52.644;4.734;2023-04-25T13:06:22;6.07;;;1.93;;
17488;SDS011;8861;52.644;4.734;2023-04-25T13:08:49;5.07;;;1.83;;
17488;SDS011;8861;52.644;4.734;2023-04-25T13:11:16;8.00;;;2.10;;
17488;SDS011;8861;52.644;4.734;2023-04-25T13:13:45;4.30;;;1.90;;
17488;SDS011;8861;52.644;4.734;2023-04-25T13:16:12;5.73;;;2.03;;
17488;SDS011;8861;52.644;4.734;2023-04-25T13:18:39;8.47;;;1.80;;
17488;SDS011;8861;52.644;4.734;2023-04-25T13:21:07;7.73;;;2.17;;
17488;SDS011;8861;52.644;4.734;2023-04-25T13:23:35;8.70;;;2.30;;
17488;SDS011;8861;52.644;4.734;2023-04-25T13:26:02;6.80;;;2.00;;
17488;SDS011;8861;52.644;4.734;2023-04-25T13:28:29;7.77;;;2.00;;
17488;SDS011;8861;52.644;4.734;2023-04-25T13:30:58;7.30;;;2.10;;
17488;SDS011;8861;52.644;4.734;2023-04-25T13:33:25;6.10;;;1.97;;
17488;SDS011;8861;52.644;4.734;2023-04-25T13:35:52;5.07;;;2.07;;
17488;SDS011;8861;52.644;4.734;2023-04-25T13:38:21;4.67;;;1.70;;
17488;SDS011;8861;52.644;4.734;2023-04-25T13:40:49;6.37;;;2.03;;
17488;SDS011;8861;52.644;4.734;2023-04-25T13:43:17;5.20;;;2.00;;
17488;SDS011;8861;52.644;4.734;2023-04-25T13:45:47;5.03;;;2.13;;
17488;SDS011;8861;52.644;4.734;2023-04-25T13:48:16;6.67;;;2.07;;
17488;SDS011;8861;52.644;4.734;2023-04-25T13:50:44;4.13;;;1.73;;
17488;SDS011;8861;52.644;4.734;2023-04-25T13:53:11;7.40;;;2.50;;
17488;SDS011;8861;52.644;4.734;2023-04-25T13:55:38;6.90;;;1.97;;
17488;SDS011;8861;52.644;4.734;2023-04-25T13:58:05;5.90;;;1.90;;
17488;SDS011;8861;52.644;4.734;2023-04-25T14:00:35;5.83;;;1.97;;
17488;SDS011;8861;52.644;4.734;2023-04-25T14:03:05;5.57;;;2.07;;
17488;SDS011;8861;52.644;4.734;2023-04-25T14:05:35;6.37;;;2.10;;
17488;SDS011;8861;52.644;4.734;2023-04-25T14:08:04;7.13;;;2.40;;
17488;SDS011;8861;52.644;4.734;2023-04-25T14:10:32;6.33;;;2.03;;
17488;SDS011;8861;52.644;4.734;2023-04-25T14:12:59;6.17;;;2.10;;
17488;SDS011;8861;52.644;4.734;2023-04-25T14:15:28;6.00;;;2.00;;
17488;SDS011;8861;52.644;4.734;2023-04-25T14:17:55;6.10;;;2.07;;
17488;SDS011;8861;52.644;4.734;2023-04-25T14:20:22;6.30;;;2.03;;
17488;SDS011;8861;52.644;4.734;2023-04-25T14:22:51;3.80;;;1.90;;
17488;SDS011;8861;52.644;4.734;2023-04-25T14:25:19;5.03;;;1.73;;
17488;SDS011;8861;52.644;4.734;2023-04-25T14:27:46;9.07;;;2.13;;
17488;SDS011;8861;52.644;4.734;2023-04-25T14:30:15;4.67;;;1.77;;
17488;SDS011;8861;52.644;4.734;2023-04-25T14:32:42;3.07;;;1.67;;
17488;SDS011;8861;52.644;4.734;2023-04-25T14:35:09;4.50;;;1.67;;
17488;SDS011;8861;52.644;4.734;2023-04-25T14:37:36;3.47;;;1.47;;
17488;SDS011;8861;52.644;4.734;2023-04-25T14:40:04;6.30;;;1.90;;
17488;SDS011;8861;52.644;4.734;2023-04-25T14:42:33;6.27;;;2.10;;
17488;SDS011;8861;52.644;4.734;2023-04-25T14:45:00;5.90;;;2.00;;
17488;SDS011;8861;52.644;4.734;2023-04-25T14:47:27;7.43;;;2.20;;
17488;SDS011;8861;52.644;4.734;2023-04-25T14:49:54;5.63;;;1.80;;
17488;SDS011;8861;52.644;4.734;2023-04-25T14:52:22;4.43;;;1.67;;
17488;SDS011;8861;52.644;4.734;2023-04-25T14:54:49;7.07;;;1.90;;
17488;SDS011;8861;52.644;4.734;2023-04-25T14:57:17;5.27;;;2.00;;
17488;SDS011;8861;52.644;4.734;2023-04-25T14:59:44;5.47;;;1.80;;
17488;SDS011;8861;52.644;4.734;2023-04-25T15:02:12;7.53;;;1.97;;
17488;SDS011;8861;52.644;4.734;2023-04-25T15:04:39;5.17;;;1.67;;
17488;SDS011;8861;52.644;4.734;2023-04-25T15:07:06;6.10;;;1.70;;